Time;durP1;ratioP1;P1;durP2;ratioP2;P2;SDS_P1;SDS_P2;PMS_P1;PMS_P2;Temp;Humidity;BMP_temperature;BMP_pressure;BME280_temperature;BME280_humidity;BME280_pressure;Samples;Min_cycle;Max_cycle;Signal;HPM_P1;HPM_P2
2022/06/20 00:00:16;;;;;;;13.70;6.05;;;;;;;-145.69;80.77;70117.16;4993347;28;20209;-76
2022/06/20 00:02:45;;;;;;;16.30;6.22;;;;;;;-145.69;81.08;70111.19;4993652;28;20201;-77
2022/06/20 00:05:15;;;;;;;17.52;5.53;;;;;;;-145.69;81.54;70131.06;4993586;28;20264;-78
2022/06/20 00:07:42;;;;;;;14.88;5.63;;;;;;;-145.69;78.11;70105.22;4993440;28;20260;-77
2022/06/20 00:10:10;;;;;;;22.20;7.22;;;;;;;-145.69;85.76;70133.06;4993548;28;20208;-78
2022/06/20 00:12:37;;;;;;;15.20;6.57;;;;;;;-145.69;87.41;70172.84;4992059;28;20276;-78
2022/06/20 00:15:06;;;;;;;19.50;6.38;;;;;;;-145.69;86.93;70186.78;4993502;28;20229;-77
2022/06/20 00:17:33;;;;;;;16.48;6.32;;;;;;;-145.69;82.60;70158.94;4993289;28;20201;-77
2022/06/20 00:19:59;;;;;;;22.67;7.07;;;;;;;-145.69;89.20;70180.81;4992938;28;20206;-77
2022/06/20 00:22:26;;;;;;;18.83;6.57;;;;;;;-145.69;93.55;70202.69;4993412;28;20256;-77
2022/06/20 00:24:52;;;;;;;12.20;6.22;;;;;;;-145.69;93.02;70230.53;4993449;28;20206;-77
2022/06/20 00:27:19;;;;;;;16.73;6.57;;;;;;;-145.69;93.49;70240.47;4993445;28;20205;-78
2022/06/20 00:29:46;;;;;;;16.73;6.38;;;;;;;-145.69;91.73;70240.47;4993028;28;20221;-78
2022/06/20 00:32:14;;;;;;;13.43;6.53;;;;;;;-145.69;96.33;70256.41;4993260;28;20201;-77
2022/06/20 00:34:40;;;;;;;19.15;6.43;;;;;;;-145.69;93.94;70256.41;4994113;28;20311;-77
2022/06/20 00:37:10;;;;;;;18.17;6.95;;;;;;;-145.69;94.42;70252.41;4997205;28;20208;-77
2022/06/20 00:39:36;;;;;;;14.50;6.07;;;;;;;-145.69;91.22;70244.47;4996866;28;20198;-77
2022/06/20 00:42:04;;;;;;;17.40;5.75;;;;;;;-145.69;82.79;70166.88;4997044;28;20616;-78
2022/06/20 00:44:36;;;;;;;17.02;6.72;;;;;;;-145.69;91.90;70208.66;4996923;28;20556;-77
2022/06/20 00:47:06;;;;;;;16.92;6.97;;;;;;;-145.69;94.16;70234.50;4996613;28;20217;-77
2022/06/20 00:49:39;;;;;;;14.73;6.15;;;;;;;-145.69;86.01;70204.69;4996506;28;20657;-76
2022/06/20 00:52:13;;;;;;;17.52;6.32;;;;;;;-145.69;91.71;70218.59;4996789;28;20197;-77
2022/06/20 00:54:45;;;;;;;13.57;6.63;;;;;;;-145.69;94.29;70252.41;4996732;28;20284;-77
2022/06/20 00:57:18;;;;;;;17.02;6.70;;;;;;;-145.69;90.98;70248.44;4996604;28;20212;-77
2022/06/20 00:59:50;;;;;;;16.60;6.43;;;;;;;-145.69;91.33;70220.59;4996964;28;20205;-76
2022/06/20 01:02:24;;;;;;;20.17;6.78;;;;;;;-145.69;95.21;70262.38;4996538;28;20201;-77
2022/06/20 01:04:56;;;;;;;15.23;6.70;;;;;;;-145.69;97.87;70294.19;4996662;28;20208;-77
2022/06/20 01:07:27;;;;;;;18.05;6.50;;;;;;;-145.69;97.73;70308.13;4995965;28;20699;-78
2022/06/20 01:09:58;;;;;;;12.75;6.70;;;;;;;-145.69;98.71;70320.06;4996344;28;20216;-77
2022/06/20 01:12:27;;;;;;;19.55;7.15;;;;;;;-145.69;99.83;70326.03;4995218;28;20264;-77
2022/06/20 01:14:54;;;;;;;16.45;6.57;;;;;;;-145.69;96.70;70308.13;4996295;28;20700;-76
2022/06/20 01:17:28;;;;;;;20.92;6.60;;;;;;;-145.69;100.00;70322.03;4996393;28;20229;-77
2022/06/20 01:20:01;;;;;;;23.63;6.90;;;;;;;-145.69;100.00;70326.03;4996401;28;20205;-77
2022/06/20 01:22:44;;;;;;;18.92;6.38;;;;;;;-145.69;99.13;70328.00;4995805;28;20608;-77
2022/06/20 01:25:54;;;;;;;17.10;6.70;;;;;;;-145.69;95.75;70300.16;4996355;28;20575;-77
2022/06/20 01:28:27;;;;;;;19.25;6.38;;;;;;;-145.69;94.88;70302.16;4995780;28;20664;-77
2022/06/20 01:30:53;;;;;;;19.25;6.35;;;;;;;-145.69;88.40;70252.41;4995941;28;20591;-77
2022/06/20 01:33:23;;;;;;;12.80;6.07;;;;;;;-145.69;85.92;70232.53;4995691;28;20197;-77
2022/06/20 01:38:37;;;;;;;16.13;5.40;;;;;;;-145.69;87.63;70238.50;4995940;28;20200;-77
2022/06/20 01:43:51;;;;;;;15.77;5.97;;;;;;;-145.69;83.06;70186.78;4995716;28;20560;-77
2022/06/20 01:46:17;;;;;;;16.02;6.40;;;;;;;-145.69;85.66;70196.72;4995288;28;20608;-77
2022/06/20 01:48:49;;;;;;;17.10;5.72;;;;;;;-145.69;87.47;70198.72;4995410;28;20728;-77
2022/06/20 01:51:20;;;;;;;16.17;5.78;;;;;;;-145.69;85.09;70200.69;4995125;28;20285;-77
2022/06/20 01:53:49;;;;;;;13.13;6.30;;;;;;;-145.69;90.93;70216.63;4995312;28;20675;-76
2022/06/20 01:56:17;;;;;;;18.83;6.30;;;;;;;-145.69;91.65;70232.53;4995664;28;20229;-76
2022/06/20 01:58:50;;;;;;;17.73;6.68;;;;;;;-145.69;93.07;70240.47;4995360;28;20552;-77
2022/06/20 02:01:18;;;;;;;15.88;6.53;;;;;;;-145.69;95.43;70300.16;4994993;28;20625;-77
2022/06/20 02:03:47;;;;;;;15.57;6.78;;;;;;;-145.69;95.80;70328.00;4987617;28;20225;-77
2022/06/20 02:06:16;;;;;;;14.55;6.40;;;;;;;-145.69;95.13;70324.03;4995299;28;20210;-77
2022/06/20 02:08:46;;;;;;;12.65;6.05;;;;;;;-145.69;96.36;70339.94;4995037;28;20587;-77
2022/06/20 02:11:25;;;;;;;13.98;7.07;;;;;;;-145.69;96.04;70328.00;4995374;28;20205;-77
2022/06/20 02:13:56;;;;;;;16.73;6.70;;;;;;;-145.69;95.08;70326.03;4975089;28;20442;-77
2022/06/20 02:16:27;;;;;;;18.92;7.53;;;;;;;-145.69;98.12;70328.00;4975555;28;20234;-77
2022/06/20 02:18:59;;;;;;;11.80;6.07;;;;;;;-145.69;95.83;70316.06;4975847;28;20202;-77
2022/06/20 02:21:29;;;;;;;16.30;6.45;;;;;;;-145.69;92.46;70292.19;4976451;28;20198;-77
2022/06/20 02:24:03;;;;;;;13.55;5.95;;;;;;;-145.69;92.53;70288.22;4995245;28;20198;-77
2022/06/20 02:26:32;;;;;;;17.02;5.75;;;;;;;-145.69;91.91;70280.28;4995040;28;20209;-76
2022/06/20 02:29:04;;;;;;;13.30;6.40;;;;;;;-145.69;94.31;70284.25;4994539;28;20664;-77
2022/06/20 02:31:33;;;;;;;15.40;6.93;;;;;;;-145.69;92.36;70282.25;4994655;28;20202;-76
2022/06/20 02:34:01;;;;;;;16.60;7.10;;;;;;;-145.69;96.60;70298.16;4994724;28;20202;-76
2022/06/20 02:36:29;;;;;;;15.48;6.35;;;;;;;-145.69;95.90;70328.00;4994939;28;20581;-77
2022/06/20 02:38:55;;;;;;;15.00;6.32;;;;;;;-145.69;95.32;70339.94;4994826;28;20244;-77
2022/06/20 02:41:26;;;;;;;26.50;7.32;;;;;;;-145.69;98.26;70335.97;4994818;28;20561;-77
2022/06/20 02:43:58;;;;;;;17.45;6.32;;;;;;;-145.69;96.28;70335.97;4975230;28;20205;-77
2022/06/20 02:46:28;;;;;;;15.00;5.88;;;;;;;-145.69;89.38;70296.19;4975265;28;20561;-77
2022/06/20 02:48:57;;;;;;;11.50;6.10;;;;;;;-145.69;91.11;70284.25;4975242;28;20328;-77
2022/06/20 02:51:29;;;;;;;17.80;7.10;;;;;;;-145.69;92.73;70270.31;4975145;28;20576;-77
2022/06/20 02:53:58;;;;;;;25.17;6.50;;;;;;;-145.69;89.69;70254.41;4974999;28;20210;-77
2022/06/20 02:56:28;;;;;;;18.42;5.85;;;;;;;-145.69;86.14;70208.66;4975039;28;20238;-78
2022/06/20 02:58:58;;;;;;;16.92;6.63;;;;;;;-145.69;83.09;70188.75;4974435;28;20556;-77
2022/06/20 03:01:33;;;;;;;19.30;6.32;;;;;;;-145.69;88.19;70230.53;4974887;28;20202;-77
2022/06/20 03:04:01;;;;;;;17.38;5.97;;;;;;;-145.69;87.07;70220.59;4974816;28;20264;-77
2022/06/20 03:06:33;;;;;;;15.07;6.72;;;;;;;-145.69;86.75;70216.63;4974700;28;20209;-77
2022/06/20 03:09:00;;;;;;;20.98;5.97;;;;;;;-145.69;67.87;70099.25;4974771;28;20213;-77
2022/06/20 03:11:31;;;;;;;17.60;6.03;;;;;;;-145.69;67.30;69999.78;4974768;28;20198;-77
2022/06/20 03:13:59;;;;;;;16.98;5.45;;;;;;;-145.69;67.03;70017.69;4991392;28;20209;-77
2022/06/20 03:16:27;;;;;;;15.27;5.47;;;;;;;-145.69;68.37;70035.59;4994205;28;20233;-78
2022/06/20 03:18:56;;;;;;;19.02;6.13;;;;;;;-145.69;66.21;69997.78;4993718;28;20202;-78
2022/06/20 03:21:28;;;;;;;11.35;4.97;;;;;;;-145.69;62.96;69969.94;4994244;28;20209;-77
2022/06/20 03:23:55;;;;;;;13.70;4.53;;;;;;;-145.69;58.58;69936.13;4994069;28;20213;-77
2022/06/20 03:26:23;;;;;;;15.90;5.18;;;;;;;-145.69;56.93;69878.44;4993894;28;20656;-77
2022/06/20 03:28:50;;;;;;;16.50;4.93;;;;;;;-145.69;54.53;69846.63;4993648;28;20519;-76
2022/06/20 03:31:16;;;;;;;12.45;4.30;;;;;;;-145.69;58.18;69874.47;4994027;28;20205;-77
2022/06/20 03:33:43;;;;;;;20.38;4.75;;;;;;;-145.69;62.31;69914.25;4993421;28;20209;-77
2022/06/20 03:36:13;;;;;;;16.85;4.97;;;;;;;-145.69;59.09;69922.22;4993907;28;20233;-77
2022/06/20 03:38:42;;;;;;;14.70;4.85;;;;;;;-145.69;62.07;69944.09;4993809;28;20275;-77
2022/06/20 03:41:11;;;;;;;21.67;5.20;;;;;;;-145.69;58.36;69926.19;4993570;28;20201;-77
2022/06/20 03:43:39;;;;;;;18.27;4.95;;;;;;;-145.69;56.88;69906.28;4993625;28;20202;-77
2022/06/20 03:46:10;;;;;;;11.30;4.60;;;;;;;-145.69;59.63;69910.28;4993348;28;20205;-78
2022/06/20 03:48:41;;;;;;;9.52;4.53;;;;;;;-145.69;57.20;69906.28;4993318;28;20236;-78
2022/06/20 03:51:12;;;;;;;21.90;4.68;;;;;;;-145.69;54.43;69870.50;4993864;28;20233;-77
2022/06/20 03:53:47;;;;;;;7.65;3.92;;;;;;;-145.69;54.96;69852.59;4993345;28;20193;-77
2022/06/20 03:56:18;;;;;;;20.27;5.28;;;;;;;-145.69;55.23;69866.50;4992844;28;20232;-78
2022/06/20 03:58:50;;;;;;;11.93;4.53;;;;;;;-145.69;54.05;69862.53;4993598;28;20202;-77
2022/06/20 04:01:22;;;;;;;12.40;4.53;;;;;;;-145.69;52.36;69846.63;4993423;28;20612;-77
2022/06/20 04:03:55;;;;;;;16.88;4.00;;;;;;;-145.69;51.12;69848.63;4993324;28;20557;-77
2022/06/20 04:06:27;;;;;;;11.70;3.65;;;;;;;-145.69;60.91;69962.00;4993178;28;20795;-78
2022/06/20 04:11:46;;;;;;;14.68;3.97;;;;;;;-145.69;72.18;70156.94;4997726;28;20660;-78
2022/06/20 04:14:19;;;;;;;14.88;3.70;;;;;;;-145.69;82.13;70240.47;4997199;28;20604;-78
2022/06/20 04:16:50;;;;;;;17.27;4.85;;;;;;;-145.69;78.39;70284.25;4997566;28;20229;-79
2022/06/20 04:19:22;;;;;;;14.90;5.15;;;;;;;-145.69;88.23;70320.06;4997424;28;20219;-79
2022/06/20 04:21:53;;;;;;;10.80;5.22;;;;;;;-145.69;100.00;70359.84;4997460;28;20201;-79
2022/06/20 04:24:28;;;;;;;12.38;5.18;;;;;;;-145.69;100.00;70387.69;4997251;28;20205;-78
2022/06/20 04:27:00;;;;;;;13.30;5.05;;;;;;;-145.69;99.66;70369.78;4997441;28;20202;-79
2022/06/20 04:29:32;;;;;;;18.48;5.90;;;;;;;-145.69;100.00;70395.66;4997320;28;20215;-78
2022/06/20 04:32:04;;;;;;;15.65;6.25;;;;;;;-145.69;100.00;70419.53;4996580;28;20204;-78
2022/06/20 04:34:39;;;;;;;18.75;6.22;;;;;;;-145.69;100.00;70427.47;4997000;28;20197;-79
2022/06/20 04:37:16;;;;;;;14.30;6.05;;;;;;;-145.69;100.00;70447.38;4997099;28;20323;-78
2022/06/20 04:39:50;;;;;;;18.65;6.40;;;;;;;-145.69;100.00;70455.34;4997045;28;20261;-78
2022/06/20 04:42:22;;;;;;;14.93;6.63;;;;;;;-145.69;100.00;70455.34;4996937;28;20209;-78
2022/06/20 04:44:54;;;;;;;15.02;6.85;;;;;;;-145.69;100.00;70451.34;4996892;28;20204;-79
2022/06/20 04:47:36;;;;;;;18.70;6.60;;;;;;;-145.69;100.00;70433.44;4997013;28;20237;-78
2022/06/20 04:50:03;;;;;;;15.55;7.03;;;;;;;-145.69;100.00;70419.53;4996714;28;20225;-79
2022/06/20 04:52:31;;;;;;;17.27;7.40;;;;;;;-145.69;100.00;70417.53;4997265;28;20201;-78
2022/06/20 04:55:00;;;;;;;21.08;7.13;;;;;;;-145.69;100.00;70423.50;4996513;28;20649;-78
2022/06/20 04:57:30;;;;;;;15.55;5.82;;;;;;;-145.69;100.00;70429.47;4996375;28;20670;-79
2022/06/20 05:00:02;;;;;;;14.30;6.40;;;;;;;-145.69;100.00;70423.50;4996238;28;20656;-79
2022/06/20 05:02:28;;;;;;;19.80;7.18;;;;;;;-145.69;100.00;70415.53;4996673;28;20683;-79
2022/06/20 05:04:59;;;;;;;13.63;6.55;;;;;;;-145.69;100.00;70415.53;4996314;28;20201;-79
2022/06/20 05:07:29;;;;;;;17.77;6.70;;;;;;;-145.69;100.00;70415.53;4995576;28;20201;-78
2022/06/20 05:10:02;;;;;;;21.45;6.57;;;;;;;-145.69;100.00;70407.59;4996249;28;20665;-78
2022/06/20 05:12:37;;;;;;;13.27;6.53;;;;;;;-145.69;100.00;70399.63;4996582;28;20237;-79
2022/06/20 05:15:12;;;;;;;16.90;6.82;;;;;;;-145.69;100.00;70403.59;4996034;28;20213;-79
2022/06/20 05:17:41;;;;;;;14.40;5.85;;;;;;;-145.69;100.00;70379.72;4995822;28;20630;-79
2022/06/20 05:20:15;;;;;;;14.02;5.97;;;;;;;-145.69;100.00;70383.72;4996143;28;20688;-79
2022/06/20 05:22:48;;;;;;;18.83;6.22;;;;;;;-145.69;100.00;70365.81;4995364;28;20208;-79
2022/06/20 05:25:21;;;;;;;19.35;5.97;;;;;;;-145.69;100.00;70357.84;4995981;28;20557;-79
2022/06/20 05:27:53;;;;;;;14.35;6.45;;;;;;;-145.69;100.00;70355.88;4996243;28;20328;-79
2022/06/20 05:30:22;;;;;;;13.20;5.75;;;;;;;-145.69;100.00;70359.84;4995786;28;20205;-79
2022/06/20 05:32:54;;;;;;;14.98;5.60;;;;;;;-145.69;100.00;70349.91;4996239;28;20201;-78
2022/06/20 05:35:25;;;;;;;16.25;5.85;;;;;;;-145.69;100.00;70337.97;4995521;28;20209;-78
2022/06/20 05:37:56;;;;;;;17.45;6.38;;;;;;;-145.69;100.00;70341.94;4995471;28;20515;-79
2022/06/20 05:40:29;;;;;;;18.20;6.35;;;;;;;-145.69;100.00;70326.03;4995913;28;20256;-79
2022/06/20 05:42:56;;;;;;;12.48;5.82;;;;;;;-145.69;100.00;70304.13;4995488;28;20197;-79
2022/06/20 05:45:25;;;;;;;11.02;5.53;;;;;;;-145.69;100.00;70288.22;4995729;28;20209;-79
2022/06/20 05:47:54;;;;;;;14.15;5.78;;;;;;;-145.69;100.00;70266.34;4994822;28;20954;-79
2022/06/20 05:50:34;;;;;;;16.85;4.82;;;;;;;-145.69;100.00;70256.41;4995776;28;20205;-79
2022/06/20 05:53:04;;;;;;;12.65;5.30;;;;;;;-145.69;100.00;70244.47;4995623;28;20259;-79
2022/06/20 05:55:41;;;;;;;11.07;4.57;;;;;;;-145.69;100.00;70220.59;4995470;28;20194;-79
2022/06/20 05:58:11;;;;;;;14.07;5.25;;;;;;;-145.69;100.00;70260.38;4995525;28;20208;-79
2022/06/20 06:00:38;;;;;;;11.75;5.07;;;;;;;-145.69;100.00;70262.38;4995694;28;20232;-79
2022/06/20 06:03:11;;;;;;;9.90;5.05;;;;;;;-145.69;100.00;70260.38;4995682;28;20476;-79
2022/06/20 06:05:41;;;;;;;15.82;5.65;;;;;;;-145.69;100.00;70248.44;4995187;28;20197;-78
2022/06/20 06:08:17;;;;;;;10.50;5.72;;;;;;;-145.69;100.00;70230.53;4995466;28;20209;-79
2022/06/20 06:10:48;;;;;;;11.43;5.13;;;;;;;-145.69;100.00;70232.53;4994985;28;20197;-78
2022/06/20 06:13:23;;;;;;;7.60;4.50;;;;;;;-145.69;100.00;70226.56;4995071;28;20205;-79
2022/06/20 06:18:46;;;;;;;17.55;5.60;;;;;;;-145.69;100.00;70300.16;4995412;28;20300;-78
2022/06/20 06:21:13;;;;;;;10.45;6.15;;;;;;;-145.69;100.00;70292.19;4994920;28;20688;-78
2022/06/20 06:23:40;;;;;;;12.18;5.75;;;;;;;-145.69;100.00;70304.13;4994838;28;20197;-79
2022/06/20 06:26:13;;;;;;;20.45;6.75;;;;;;;-145.69;100.00;70306.13;4995087;28;20699;-79
2022/06/20 06:28:41;;;;;;;16.88;6.03;;;;;;;-145.69;100.00;70282.25;4994848;28;20205;-79
2022/06/20 06:31:13;;;;;;;10.95;6.35;;;;;;;-145.69;100.00;70252.41;4995252;28;20201;-79
2022/06/20 06:33:44;;;;;;;13.48;6.40;;;;;;;-145.69;100.00;70256.41;4993862;28;20201;-79
2022/06/20 06:36:16;;;;;;;13.05;5.90;;;;;;;-145.69;100.00;70262.38;4994944;28;20233;-78
2022/06/20 06:38:48;;;;;;;13.15;6.53;;;;;;;-145.69;100.00;70238.50;4994472;28;20216;-79
2022/06/20 06:41:23;;;;;;;15.75;5.30;;;;;;;-145.69;100.00;70196.72;4994749;28;20636;-79
2022/06/20 06:43:51;;;;;;;13.63;5.10;;;;;;;-145.69;100.00;70147.00;4994502;28;20644;-79
2022/06/20 06:46:24;;;;;;;10.43;4.65;;;;;;;-145.69;100.00;70099.25;4994854;28;20295;-78
2022/06/20 06:48:56;;;;;;;12.73;4.13;;;;;;;-145.69;100.00;70053.50;4994534;28;20230;-78
2022/06/20 06:51:29;;;;;;;8.38;4.15;;;;;;;-145.69;100.00;70017.69;4994454;28;20209;-78
2022/06/20 06:54:01;;;;;;;8.65;3.72;;;;;;;-145.69;94.64;69958.00;4994348;28;20193;-78
2022/06/20 06:56:35;;;;;;;9.10;3.90;;;;;;;-145.69;87.35;69936.13;4994036;28;20464;-78
2022/06/20 06:59:09;;;;;;;10.43;3.80;;;;;;;-145.69;91.69;69926.19;4993453;28;22449;-78
2022/06/20 07:01:42;;;;;;;12.52;4.30;;;;;;;-145.69;88.21;69928.19;4994405;28;20671;-78
2022/06/20 07:04:16;;;;;;;10.00;4.47;;;;;;;-145.69;89.62;69874.47;4994475;28;20196;-78
2022/06/20 07:06:48;;;;;;;10.07;4.25;;;;;;;-145.69;81.28;69878.44;4994566;28;20241;-78
2022/06/20 07:09:20;;;;;;;6.40;3.72;;;;;;;-145.69;79.86;69874.47;4994443;28;20201;-78
2022/06/20 07:11:54;;;;;;;6.88;3.60;;;;;;;-145.69;75.04;69828.72;4994409;28;20197;-79
2022/06/20 07:14:23;;;;;;;8.95;3.65;;;;;;;-145.69;73.97;69902.31;4993851;28;20201;-78
2022/06/20 07:16:56;;;;;;;8.10;3.70;;;;;;;-145.69;74.71;69870.50;4994175;28;20229;-78
2022/06/20 07:19:24;;;;;;;8.57;3.78;;;;;;;-145.69;81.07;69846.63;4994197;28;20209;-78
2022/06/20 07:21:51;;;;;;;5.15;3.70;;;;;;;-145.69;68.99;69890.38;4994141;28;20244;-78
2022/06/20 07:24:22;;;;;;;8.52;3.72;;;;;;;-145.69;76.21;69846.63;4993313;28;20202;-78
2022/06/20 07:26:55;;;;;;;10.23;4.10;;;;;;;-145.69;75.58;69796.91;4993571;28;20205;-78
2022/06/20 07:29:26;;;;;;;8.63;3.80;;;;;;;-145.69;64.31;69798.88;4993905;28;20652;-77
2022/06/20 07:31:57;;;;;;;9.27;4.10;;;;;;;-145.69;70.90;69834.69;4993487;28;20209;-77
2022/06/20 07:34:30;;;;;;;5.70;3.58;;;;;;;-145.69;64.26;69808.84;4993673;28;20228;-77
2022/06/20 07:36:59;;;;;;;7.45;3.53;;;;;;;-145.69;69.87;69804.84;4993738;28;20225;-77
2022/06/20 07:39:28;;;;;;;9.30;3.90;;;;;;;-145.69;65.41;69822.75;4993534;28;20205;-77
2022/06/20 07:42:02;;;;;;;7.43;3.60;;;;;;;-145.69;64.02;69796.91;4993897;28;20208;-78
2022/06/20 07:44:34;;;;;;;7.55;3.90;;;;;;;-145.69;64.50;69794.91;4992127;28;20555;-78
2022/06/20 07:47:08;;;;;;;10.10;3.20;;;;;;;-145.69;62.64;69790.94;4993403;28;20306;-75
2022/06/20 07:49:38;;;;;;;6.72;3.05;;;;;;;-145.69;68.05;69759.09;4993509;28;20668;-77
2022/06/20 07:52:09;;;;;;;4.75;3.08;;;;;;;-145.69;56.32;69765.06;4993450;28;20248;-78
2022/06/20 07:54:40;;;;;;;8.73;3.53;;;;;;;-145.69;61.37;69741.19;4993597;28;20202;-77
2022/06/20 07:57:13;;;;;;;7.85;3.10;;;;;;;-145.69;57.15;69723.31;4993632;28;20236;-78
2022/06/20 07:59:46;;;;;;;6.82;3.63;;;;;;;-145.69;55.53;69695.47;4993528;28;20236;-78
2022/06/20 08:02:19;;;;;;;7.20;3.33;;;;;;;-145.69;53.31;69695.47;4993410;28;20296;-77
2022/06/20 08:04:50;;;;;;;10.80;3.10;;;;;;;-145.69;54.01;69683.53;4993434;28;20202;-78
2022/06/20 08:07:22;;;;;;;11.55;3.35;;;;;;;-145.69;48.82;69697.44;4993335;28;20197;-77
2022/06/20 08:09:57;;;;;;;10.05;3.58;;;;;;;-145.69;51.35;69659.66;4993259;28;20252;-78
2022/06/20 08:12:31;;;;;;;10.15;3.30;;;;;;;-145.69;50.31;69633.78;4993498;28;20213;-76
2022/06/20 08:15:02;;;;;;;8.90;3.50;;;;;;;-145.69;51.47;69637.78;4993622;28;20200;-76
2022/06/20 08:17:30;;;;;;;7.55;3.10;;;;;;;-145.69;49.99;69647.72;4993215;28;20272;-78
2022/06/20 08:19:58;;;;;;;5.72;2.90;;;;;;;-145.69;50.77;69635.78;4993498;28;20288;-78
2022/06/20 08:22:30;;;;;;;3.15;2.70;;;;;;;-145.69;48.99;69607.94;4993392;28;20201;-78
2022/06/20 08:25:02;;;;;;;10.30;3.20;;;;;;;-145.69;48.23;69629.81;4993302;28;20205;-77
2022/06/20 08:27:39;;;;;;;11.25;2.83;;;;;;;-145.69;49.29;69637.78;4992793;28;20209;-77
2022/06/20 08:30:11;;;;;;;7.80;2.97;;;;;;;-145.69;47.53;69633.78;4992431;28;20445;-78
2022/06/20 08:32:47;;;;;;;7.65;3.00;;;;;;;-145.69;44.21;69677.56;4993183;28;20209;-76
2022/06/20 08:35:21;;;;;;;7.95;2.97;;;;;;;-145.69;48.90;69619.88;4993404;28;20217;-76
2022/06/20 08:37:51;;;;;;;9.50;3.00;;;;;;;-145.69;48.63;69594.00;4992680;28;20233;-76
2022/06/20 08:40:42;;;;;;;6.15;2.95;;;;;;;-145.69;45.74;69627.84;4993663;28;20193;-76
2022/06/20 08:43:26;;;;;;;7.47;3.10;;;;;;;-145.69;48.92;69607.94;4992949;28;20204;-77
2022/06/20 08:46:13;;;;;;;8.43;2.92;;;;;;;-145.69;45.88;69605.94;4992875;28;20679;-78
2022/06/20 08:49:15;;;;;;;8.00;3.13;;;;;;;-145.69;47.36;69639.75;4991622;28;20365;-75
2022/06/20 08:52:08;;;;;;;6.93;3.00;;;;;;;-145.69;47.19;69663.63;4992879;28;20201;-78
2022/06/20 08:54:59;;;;;;;8.93;2.97;;;;;;;-145.69;45.93;69653.69;4993176;28;20216;-78
2022/06/20 08:57:38;;;;;;;6.53;3.03;;;;;;;-145.69;44.80;69671.59;4996158;28;20233;-77
2022/06/20 09:00:15;;;;;;;13.63;3.30;;;;;;;-145.69;45.29;69693.47;4996628;28;20660;-76
2022/06/20 09:03:14;;;;;;;8.35;3.08;;;;;;;-145.69;46.43;69691.47;4996517;28;20288;-76
2022/06/20 09:06:05;;;;;;;5.70;3.00;;;;;;;-145.69;47.19;69687.50;4996670;28;20209;-76
2022/06/20 09:08:49;;;;;;;13.18;3.50;;;;;;;-145.69;47.78;69665.63;4995688;28;20205;-76
2022/06/20 09:11:33;;;;;;;6.53;3.00;;;;;;;-145.69;48.91;69679.53;4996710;28;20264;-77
2022/06/20 09:14:18;;;;;;;7.50;3.42;;;;;;;-145.69;48.83;69701.41;4996524;28;20644;-77
2022/06/20 09:16:56;;;;;;;8.55;3.08;;;;;;;-145.69;48.59;69693.47;4996443;28;20205;-78
2022/06/20 09:19:43;;;;;;;6.82;3.08;;;;;;;-145.69;48.31;69699.44;4996008;28;20252;-78
2022/06/20 09:22:23;;;;;;;9.65;3.42;;;;;;;-145.69;48.26;69713.34;4996431;28;20239;-78
2022/06/20 09:25:03;;;;;;;5.75;3.20;;;;;;;-145.69;48.85;69699.44;4996332;28;20264;-79
2022/06/20 09:27:45;;;;;;;11.93;3.17;;;;;;;-145.69;48.64;69693.47;4995919;28;20679;-78
2022/06/20 09:30:16;;;;;;;7.35;3.35;;;;;;;-145.69;48.07;69679.53;4996187;28;20197;-77
2022/06/20 09:33:15;;;;;;;11.55;3.38;;;;;;;-145.69;48.93;69675.56;4996133;28;20201;-78
2022/06/20 09:36:13;;;;;;;8.13;3.28;;;;;;;-145.69;48.01;69661.66;4996031;28;20197;-78
2022/06/20 09:38:50;;;;;;;9.98;3.08;;;;;;;-145.69;50.49;69653.69;4995861;28;20232;-79
2022/06/20 09:41:26;;;;;;;6.20;3.03;;;;;;;-145.69;48.79;69655.69;4996043;28;20197;-77
2022/06/20 09:44:06;;;;;;;9.25;3.88;;;;;;;-145.69;48.01;69663.63;4995971;28;20205;-77
2022/06/20 09:46:41;;;;;;;7.28;3.25;;;;;;;-145.69;49.30;69643.75;4995231;28;20445;-77
2022/06/20 09:49:21;;;;;;;6.90;3.03;;;;;;;-145.69;48.66;69629.81;4995381;28;20770;-78
2022/06/20 09:51:55;;;;;;;10.23;3.03;;;;;;;-145.69;51.10;69598.00;4995924;28;20251;-78
2022/06/20 09:54:30;;;;;;;13.30;3.47;;;;;;;-145.69;47.68;69603.97;4995510;28;20556;-76
2022/06/20 09:57:05;;;;;;;7.95;3.20;;;;;;;-145.69;49.22;69631.81;4995686;28;20302;-78
2022/06/20 09:59:41;;;;;;;7.20;3.13;;;;;;;-145.69;47.22;69613.91;4995579;28;20247;-77
2022/06/20 10:02:20;;;;;;;7.97;2.92;;;;;;;-145.69;48.13;69588.06;4995716;28;20212;-78
2022/06/20 10:04:57;;;;;;;7.72;2.95;;;;;;;-145.69;48.18;69603.97;4995380;28;20194;-76
2022/06/20 10:07:32;;;;;;;10.15;3.40;;;;;;;-145.69;45.22;69596.00;4994758;28;20567;-77
2022/06/20 10:10:05;;;;;;;5.47;2.47;;;;;;;-145.69;46.40;69598.00;4995649;28;20197;-77
2022/06/20 10:12:41;;;;;;;7.00;3.03;;;;;;;-145.69;49.26;69574.13;4995522;28;20201;-76
2022/06/20 10:15:14;;;;;;;9.52;3.40;;;;;;;-145.69;48.65;69560.22;4995133;28;20197;-78
2022/06/20 10:17:49;;;;;;;6.13;2.70;;;;;;;-145.69;49.27;69556.22;4995121;28;20699;-76
2022/06/20 10:20:29;;;;;;;5.68;3.05;;;;;;;-145.69;47.61;69568.16;4994263;28;20447;-79
2022/06/20 10:23:03;;;;;;;7.88;3.17;;;;;;;-145.69;46.33;69584.06;4995347;28;20212;-79
2022/06/20 10:25:42;;;;;;;14.93;3.15;;;;;;;-145.69;48.71;69568.16;4995024;28;20267;-77
2022/06/20 10:28:15;;;;;;;10.90;3.35;;;;;;;-145.69;47.75;69556.22;4993395;28;20202;-77
2022/06/20 10:30:47;;;;;;;5.28;2.80;;;;;;;-145.69;46.68;69544.28;4994580;28;20233;-78
2022/06/20 10:33:41;;;;;;;5.72;3.00;;;;;;;-145.69;46.94;69564.19;4995117;28;20197;-77
2022/06/20 10:36:22;;;;;;;6.03;3.00;;;;;;;-145.69;46.81;69484.63;4981211;28;20237;-76
2022/06/20 10:39:09;;;;;;;6.10;2.80;;;;;;;-145.69;43.12;69464.75;4992940;28;20264;-76
2022/06/20 10:41:47;;;;;;;9.02;3.10;;;;;;;-145.69;43.47;69448.81;4993978;28;20224;-77
2022/06/20 10:44:22;;;;;;;10.32;3.05;;;;;;;-145.69;42.79;69448.81;4993339;28;20201;-77
2022/06/20 10:46:56;;;;;;;4.85;3.10;;;;;;;-145.69;41.57;69488.59;4975114;28;20252;-78
2022/06/20 10:49:37;;;;;;;5.68;3.08;;;;;;;-145.69;43.44;69502.53;4974977;28;20316;-77
2022/06/20 10:52:25;;;;;;;5.18;2.75;;;;;;;-145.69;44.71;69508.50;4975352;28;20569;-78
2022/06/20 10:55:05;;;;;;;10.48;3.65;;;;;;;-145.69;45.11;69528.38;4979955;28;20285;-77
2022/06/20 10:57:46;;;;;;;7.93;3.45;;;;;;;-145.69;45.41;69558.22;4994299;28;20225;-76
2022/06/20 11:00:15;;;;;;;7.15;3.50;;;;;;;-145.69;44.20;69556.22;4994528;28;20209;-78
2022/06/20 11:03:09;;;;;;;8.48;3.28;;;;;;;-145.69;44.81;69584.06;4994522;28;20204;-78
2022/06/20 11:05:39;;;;;;;9.80;3.38;;;;;;;-145.69;44.76;69546.28;4994153;28;20197;-78
2022/06/20 11:08:18;;;;;;;8.65;3.17;;;;;;;-145.69;47.12;69480.66;4994582;28;20213;-76
2022/06/20 11:10:56;;;;;;;8.90;3.55;;;;;;;-145.69;44.38;69444.84;4994508;28;20205;-77
2022/06/20 11:13:28;;;;;;;5.63;3.20;;;;;;;-145.69;43.23;69432.91;4994050;28;20205;-78
2022/06/20 11:16:07;;;;;;;5.03;2.92;;;;;;;-145.69;44.48;69496.56;4993249;28;20584;-77
2022/06/20 11:18:48;;;;;;;7.27;3.33;;;;;;;-145.69;46.66;69504.50;4993707;28;20965;-77
2022/06/20 11:21:22;;;;;;;5.10;3.05;;;;;;;-145.69;44.62;69540.31;4993905;28;20247;-77
2022/06/20 11:24:03;;;;;;;7.28;3.10;;;;;;;-145.69;45.23;69566.16;4994129;28;20833;-78
2022/06/20 11:26:39;;;;;;;5.45;2.92;;;;;;;-145.69;44.59;69572.13;4993807;28;20588;-77
2022/06/20 11:29:22;;;;;;;4.70;2.85;;;;;;;-145.69;44.75;69524.41;4994085;28;20596;-79
2022/06/20 11:31:57;;;;;;;10.82;3.55;;;;;;;-145.69;44.49;69512.47;4994047;28;20198;-78
2022/06/20 11:34:57;;;;;;;6.75;3.15;;;;;;;-145.69;44.07;69478.66;4993532;28;20197;-78
2022/06/20 11:37:38;;;;;;;4.55;2.67;;;;;;;-145.69;44.33;69430.94;4993966;28;20267;-79
2022/06/20 11:40:24;;;;;;;6.78;2.30;;;;;;;-145.69;39.94;69450.81;4993744;28;20726;-77
2022/06/20 11:43:14;;;;;;;6.07;2.22;;;;;;;-145.69;42.09;69500.53;4993860;28;20205;-79
2022/06/20 11:46:02;;;;;;;7.18;2.35;;;;;;;-145.69;41.07;69420.97;4993477;28;20208;-78
2022/06/20 11:48:40;;;;;;;7.40;2.80;;;;;;;-145.69;39.78;69389.16;4993825;28;20237;-77